createdAt,value
2018-06-12T04:09:43.362Z,15.24
2018-06-12T04:10:08.902Z,15.25
2018-06-12T04:10:34.411Z,15.29
2018-06-12T04:11:00.118Z,15.31
2018-06-12T04:11:25.652Z,15.29
2018-06-12T04:11:51.191Z,15.21
2018-06-12T04:12:16.599Z,15.22
2018-06-12T04:12:42.430Z,15.29
2018-06-12T04:13:08.115Z,15.27
2018-06-12T04:13:33.576Z,15.28
2018-06-12T04:13:59.105Z,15.35
2018-06-12T04:14:24.603Z,15.33
2018-06-12T04:14:50.094Z,15.33
2018-06-12T04:15:15.651Z,15.33
2018-06-12T04:15:41.174Z,15.37
2018-06-12T04:16:06.642Z,15.29
2018-06-12T04:16:32.180Z,15.28
2018-06-12T04:16:57.672Z,15.29
2018-06-12T04:17:23.267Z,15.29
2018-06-12T04:17:48.605Z,15.35
2018-06-12T04:18:14.233Z,15.27
2018-06-12T04:18:39.872Z,15.37
2018-06-12T04:19:05.715Z,15.42
2018-06-12T04:19:32.295Z,15.4
2018-06-12T04:19:58.024Z,15.42
2018-06-12T04:20:23.694Z,15.37
2018-06-12T04:20:49.279Z,15.37
2018-06-12T04:21:14.837Z,15.35
2018-06-12T04:21:40.646Z,15.37
2018-06-12T04:22:06.140Z,15.29
2018-06-12T04:22:31.701Z,15.37
2018-06-12T04:22:57.119Z,15.36
2018-06-12T04:23:22.619Z,15.35
2018-06-12T04:23:48.164Z,15.39
2018-06-12T04:24:14.062Z,15.33
2018-06-12T04:24:39.433Z,15.35
2018-06-12T04:25:04.992Z,15.33
2018-06-12T04:25:30.384Z,15.28
2018-06-12T04:25:56.134Z,15.31
2018-06-12T04:26:21.731Z,15.31
2018-06-12T04:26:47.778Z,15.29
2018-06-12T04:27:13.182Z,15.31
2018-06-12T04:27:38.798Z,15.33
2018-06-12T04:28:04.340Z,15.33
2018-06-12T04:28:29.905Z,15.31
2018-06-12T04:28:55.808Z,15.33
2018-06-12T04:29:21.326Z,15.36
2018-06-12T04:29:46.894Z,15.33
2018-06-12T04:30:12.312Z,15.29
2018-06-12T04:30:37.809Z,15.37
2018-06-12T04:31:03.312Z,15.35
2018-06-12T04:31:29.238Z,15.36
2018-06-12T04:31:54.714Z,15.35
2018-06-12T04:32:20.114Z,15.35
2018-06-12T04:32:45.729Z,15.28
2018-06-12T04:33:11.327Z,15.29
2018-06-12T04:33:36.790Z,15.31
2018-06-12T04:34:02.306Z,15.35
2018-06-12T04:34:27.872Z,15.36
2018-06-12T04:34:53.353Z,15.31
2018-06-12T04:35:19.034Z,15.37
2018-06-12T04:35:45.074Z,15.4
2018-06-12T04:36:10.691Z,15.37
2018-06-12T04:36:36.433Z,15.35
2018-06-12T04:37:02.033Z,15.37
2018-06-12T04:37:27.402Z,15.39
2018-06-12T04:37:52.979Z,15.42
2018-06-12T04:38:18.529Z,15.49
2018-06-12T04:38:44.088Z,15.47
2018-06-12T04:39:09.550Z,15.47
2018-06-12T04:39:35.168Z,15.54
2018-06-12T04:40:00.682Z,15.49
2018-06-12T04:40:26.021Z,15.44
2018-06-12T04:40:51.603Z,15.54
2018-06-12T04:41:17.171Z,15.49
2018-06-12T04:41:42.701Z,15.49
2018-06-12T04:42:08.206Z,15.49
2018-06-12T04:42:33.767Z,15.49
2018-06-12T04:42:59.343Z,15.47
2018-06-12T04:43:24.845Z,15.49
2018-06-12T04:43:50.447Z,15.49
2018-06-12T04:44:15.852Z,15.52
2018-06-12T04:44:41.406Z,15.47
2018-06-12T04:45:06.936Z,15.49
2018-06-12T04:45:32.476Z,15.46
2018-06-12T04:45:58.025Z,15.47
2018-06-12T04:46:23.504Z,15.52
2018-06-12T04:46:49.021Z,15.46
2018-06-12T04:47:14.477Z,15.46
2018-06-12T04:47:40.119Z,15.51
2018-06-12T04:48:05.657Z,15.47
2018-06-12T04:48:31.085Z,15.58
2018-06-12T04:48:56.702Z,15.49
2018-06-12T04:49:22.211Z,15.49
2018-06-12T04:49:47.676Z,15.52
2018-06-12T04:50:13.155Z,15.51
2018-06-12T04:50:38.740Z,15.54
2018-06-12T04:51:04.213Z,15.51
2018-06-12T04:51:29.769Z,15.54
2018-06-12T04:51:55.361Z,15.55
2018-06-12T04:52:20.848Z,15.61
2018-06-12T04:52:46.399Z,15.58
2018-06-12T04:53:11.861Z,15.57
2018-06-12T04:53:37.337Z,15.55
2018-06-12T04:54:02.899Z,15.51
2018-06-12T04:54:28.438Z,15.58
2018-06-12T04:54:53.974Z,15.58
2018-06-12T04:55:19.556Z,15.57
2018-06-12T04:55:45.235Z,15.54
2018-06-12T04:56:10.777Z,15.64
2018-06-12T04:56:36.155Z,15.62
2018-06-12T04:57:01.740Z,15.64
2018-06-12T04:57:27.167Z,15.59
2018-06-12T04:57:52.721Z,15.58
2018-06-12T04:58:18.521Z,15.64
2018-06-12T04:58:44.074Z,15.62
2018-06-12T04:59:09.658Z,15.57
2018-06-12T04:59:35.353Z,15.58
2018-06-12T05:00:00.930Z,15.62
2018-06-12T05:00:26.440Z,15.57
2018-06-12T05:00:52.061Z,15.57
2018-06-12T05:01:17.436Z,15.57
2018-06-12T05:01:42.935Z,15.52
2018-06-12T05:02:08.439Z,15.57
2018-06-12T05:02:33.888Z,15.49
2018-06-12T05:02:59.385Z,15.47
2018-06-12T05:03:24.917Z,15.54
2018-06-12T05:03:50.485Z,15.58
2018-06-12T05:04:15.930Z,15.51
2018-06-12T05:04:41.416Z,15.58
2018-06-12T05:05:06.993Z,15.47
2018-06-12T05:05:32.716Z,15.57
2018-06-12T05:05:58.160Z,15.61
2018-06-12T05:06:23.746Z,15.52
2018-06-12T05:06:49.229Z,15.54
2018-06-12T05:07:14.699Z,15.51
2018-06-12T05:07:40.116Z,15.49
2018-06-12T05:08:05.685Z,15.47
2018-06-12T05:08:31.137Z,15.54
2018-06-12T05:08:56.685Z,15.49
2018-06-12T05:09:22.206Z,15.58
2018-06-12T05:09:47.706Z,15.52
2018-06-12T05:10:13.227Z,15.58
2018-06-12T05:10:38.790Z,15.49
2018-06-12T05:11:04.188Z,15.61
2018-06-12T05:11:29.725Z,15.62
2018-06-12T05:11:55.229Z,15.55
2018-06-12T05:12:20.859Z,15.55
2018-06-12T05:12:46.446Z,15.58
2018-06-12T05:13:11.808Z,15.65
2018-06-12T05:13:37.304Z,15.58
2018-06-12T05:14:02.847Z,15.52
2018-06-12T05:14:28.363Z,15.58
2018-06-12T05:14:53.889Z,15.57
2018-06-12T05:15:19.423Z,15.58
2018-06-12T05:15:44.900Z,15.61
2018-06-12T05:16:10.429Z,15.57
2018-06-12T05:16:35.974Z,15.64
2018-06-12T05:17:01.734Z,15.59
2018-06-12T05:17:27.211Z,15.57
2018-06-12T05:17:52.730Z,15.61
2018-06-12T05:18:18.143Z,15.58
2018-06-12T05:19:21.814Z,15.62
2018-06-12T05:19:47.345Z,15.68
2018-06-12T05:20:12.722Z,15.58
2018-06-12T05:20:38.280Z,15.59
2018-06-12T05:21:03.755Z,15.59
2018-06-12T05:21:29.236Z,15.62
2018-06-12T05:21:54.727Z,15.58
2018-06-12T05:22:20.275Z,15.59
2018-06-12T05:22:45.774Z,15.62
2018-06-12T05:23:11.246Z,15.62
2018-06-12T05:23:36.723Z,15.67
2018-06-12T05:24:02.126Z,15.55
2018-06-12T05:24:27.715Z,15.55
2018-06-12T05:24:53.150Z,15.61
2018-06-12T05:25:18.656Z,15.58
2018-06-12T05:25:44.149Z,15.57
2018-06-12T05:26:09.609Z,15.55
2018-06-12T05:26:35.094Z,15.73
2018-06-12T05:27:00.587Z,15.72
2018-06-12T05:27:26.063Z,15.68
2018-06-12T05:27:51.709Z,15.62
2018-06-12T05:28:17.131Z,15.61
2018-06-12T05:28:42.584Z,15.67
2018-06-12T05:29:08.051Z,15.67
2018-06-12T05:29:33.485Z,15.7
2018-06-12T05:29:59.088Z,15.72
2018-06-12T05:30:24.487Z,15.72
2018-06-12T05:30:50.109Z,15.72
2018-06-12T05:31:15.571Z,15.7
2018-06-12T05:31:41.116Z,15.77
2018-06-12T05:32:06.657Z,15.76
2018-06-12T05:32:32.243Z,15.8
2018-06-12T05:32:57.809Z,15.82
2018-06-12T05:33:23.262Z,15.82
2018-06-12T05:33:48.701Z,15.86
2018-06-12T05:34:14.193Z,15.79
2018-06-12T05:34:39.697Z,15.94
2018-06-12T05:35:05.147Z,15.88
2018-06-12T05:35:30.903Z,15.84
2018-06-12T05:35:56.372Z,15.88
2018-06-12T05:36:22.669Z,15.86
2018-06-12T05:36:48.316Z,15.94
2018-06-12T05:37:13.784Z,15.82
2018-06-12T05:37:39.387Z,15.95
2018-06-12T05:38:05.035Z,15.95
2018-06-12T05:38:30.438Z,15.83
2018-06-12T05:38:55.970Z,15.92
2018-06-12T05:39:21.498Z,15.92
2018-06-12T05:39:46.966Z,15.92
2018-06-12T05:40:12.465Z,15.97
2018-06-12T05:40:37.941Z,16
2018-06-12T05:41:03.660Z,16.01
2018-06-12T05:41:29.026Z,15.98
2018-06-12T05:41:54.471Z,16.04
2018-06-12T05:42:19.932Z,15.97
2018-06-12T05:42:45.694Z,15.98
2018-06-12T05:43:11.101Z,16.02
2018-06-12T05:43:36.621Z,16.04
2018-06-12T05:44:02.088Z,16.01
2018-06-12T05:44:27.617Z,16.01
2018-06-12T05:44:53.215Z,16
2018-06-12T05:45:19.076Z,16.01
2018-06-12T05:45:44.408Z,16.02
2018-06-12T05:46:09.972Z,16.04
2018-06-12T05:46:35.698Z,16
2018-06-12T05:47:01.241Z,16.04
2018-06-12T05:47:26.768Z,16.12
2018-06-12T05:47:52.252Z,16.02
2018-06-12T05:48:17.726Z,16.01
2018-06-12T05:48:43.271Z,16.01
2018-06-12T05:49:08.729Z,16.04
2018-06-12T05:49:34.279Z,16
2018-06-12T05:49:59.696Z,16.08
2018-06-12T05:50:25.416Z,16.02
2018-06-12T05:50:50.899Z,16.08
2018-06-12T05:51:16.263Z,16.12
2018-06-12T05:51:41.829Z,16.1
2018-06-12T05:52:07.268Z,16.2
2018-06-12T05:52:32.824Z,16.17
2018-06-12T05:52:58.293Z,16.16
2018-06-12T05:53:24.002Z,16.23
2018-06-12T05:53:49.442Z,16.26
2018-06-12T05:54:14.979Z,16.31
2018-06-12T05:54:40.413Z,16.32
2018-06-12T05:55:06.011Z,16.35
2018-06-12T05:55:31.513Z,16.31
2018-06-12T05:55:56.894Z,16.36
2018-06-12T05:56:22.392Z,16.35
2018-06-12T05:56:47.818Z,16.35
2018-06-12T05:57:13.590Z,16.33
2018-06-12T05:57:39.065Z,16.35
2018-06-12T05:58:04.613Z,16.38
2018-06-12T05:58:30.125Z,16.32
2018-06-12T05:58:55.681Z,16.43
2018-06-12T05:59:21.160Z,16.46
2018-06-12T05:59:47.259Z,16.42
2018-06-12T06:00:14.281Z,16.51
2018-06-12T06:00:41.619Z,16.41
2018-06-12T06:01:07.233Z,16.47
2018-06-12T06:01:32.783Z,16.5
2018-06-12T06:01:58.655Z,16.43
2018-06-12T06:02:24.190Z,16.41
2018-06-12T06:02:49.884Z,16.41
2018-06-12T06:03:15.401Z,16.53
2018-06-12T06:03:41.014Z,16.53
2018-06-12T06:04:06.560Z,16.56
2018-06-12T06:04:31.973Z,16.53
2018-06-12T06:04:57.663Z,16.57
2018-06-12T06:05:23.112Z,16.57
2018-06-12T06:05:48.723Z,16.57
2018-06-12T06:06:14.328Z,16.54
2018-06-12T06:06:39.765Z,16.54
2018-06-12T06:07:05.259Z,16.65
2018-06-12T06:07:30.787Z,16.56
2018-06-12T06:07:56.235Z,16.53
2018-06-12T06:08:21.795Z,16.57
2018-06-12T06:08:47.212Z,16.69
2018-06-12T06:09:12.696Z,16.64
2018-06-12T06:09:38.217Z,16.61
2018-06-12T06:10:03.804Z,16.56
2018-06-12T06:10:29.241Z,16.64
2018-06-12T06:10:54.762Z,16.53
2018-06-12T06:11:20.263Z,16.6
2018-06-12T06:11:45.781Z,16.61
2018-06-12T06:12:11.284Z,16.5
2018-06-12T06:13:14.892Z,16.65
2018-06-12T06:13:40.373Z,16.64
2018-06-12T06:14:05.827Z,16.6
2018-06-12T06:14:31.317Z,16.64
2018-06-12T06:14:56.745Z,16.6
2018-06-12T06:15:22.145Z,16.54
2018-06-12T06:15:47.649Z,16.65
2018-06-12T06:16:13.144Z,16.56
2018-06-12T06:16:38.805Z,16.58
2018-06-12T06:17:04.645Z,16.53
2018-06-12T06:17:30.250Z,16.6
2018-06-12T06:17:55.775Z,16.54
2018-06-12T06:18:21.323Z,16.71
2018-06-12T06:18:46.803Z,16.53
2018-06-12T06:19:12.410Z,16.64
2018-06-12T06:19:37.800Z,16.57
2018-06-12T06:20:47.544Z,16.56
2018-06-12T06:21:12.979Z,16.6
2018-06-12T06:21:38.557Z,16.57
2018-06-12T06:22:03.951Z,16.58
2018-06-12T06:22:29.621Z,16.64
2018-06-12T06:22:55.018Z,16.71
2018-06-12T06:23:20.465Z,16.71
2018-06-12T06:23:46.037Z,16.75
2018-06-12T06:24:11.501Z,16.66
2018-06-12T06:24:36.971Z,16.72
2018-06-12T06:25:02.554Z,16.69
2018-06-12T06:25:28.114Z,16.71
2018-06-12T06:25:53.652Z,16.72
2018-06-12T06:26:19.322Z,16.72
2018-06-12T06:26:44.914Z,16.76
2018-06-12T06:27:10.452Z,16.75
2018-06-12T06:27:35.946Z,16.78
2018-06-12T06:28:01.430Z,16.79
2018-06-12T06:28:26.916Z,16.74
2018-06-12T06:28:52.448Z,16.83
2018-06-12T06:29:17.865Z,16.76
2018-06-12T06:29:43.620Z,16.78
2018-06-12T06:30:09.052Z,16.79
2018-06-12T06:30:34.606Z,16.87
2018-06-12T06:31:00.048Z,16.9
2018-06-12T06:31:25.543Z,16.9
2018-06-12T06:31:51.069Z,16.91
2018-06-12T06:32:16.645Z,16.99
2018-06-12T06:32:42.112Z,16.94
2018-06-12T06:33:07.743Z,17.02
2018-06-12T06:33:33.291Z,17.02
2018-06-12T06:33:58.790Z,17.04
2018-06-12T06:34:24.253Z,17.01
2018-06-12T06:34:49.794Z,17.04
2018-06-12T06:35:15.206Z,17.01
2018-06-12T06:35:40.660Z,17.06
2018-06-12T06:36:06.323Z,17.02
2018-06-12T06:36:31.708Z,17.08
2018-06-12T06:36:57.209Z,17.08
2018-06-12T06:37:22.845Z,17.06
2018-06-12T06:37:48.320Z,17.06
2018-06-12T06:38:13.803Z,17.04
2018-06-12T06:38:39.415Z,17.02
2018-06-12T06:39:04.894Z,17.05
2018-06-12T06:39:30.319Z,17.16
2018-06-12T06:39:55.877Z,17.04
2018-06-12T06:40:21.303Z,17.06
2018-06-12T06:40:46.877Z,17.06
2018-06-12T06:41:12.411Z,17.19
2018-06-12T06:41:37.983Z,17.15
2018-06-12T06:42:03.561Z,17.16
2018-06-12T06:42:29.021Z,17.14
2018-06-12T06:42:54.513Z,17.14
2018-06-12T06:43:19.997Z,17.19
2018-06-12T06:43:45.509Z,17.19
2018-06-12T06:44:11.101Z,17.2
2018-06-12T06:44:36.726Z,17.16
2018-06-12T06:45:02.192Z,17.16
2018-06-12T06:45:27.636Z,17.19
2018-06-12T06:45:53.198Z,17.09
2018-06-12T06:46:18.791Z,17.15
2018-06-12T06:46:44.188Z,17.11
2018-06-12T06:47:09.683Z,17.14
2018-06-12T06:47:35.360Z,17.12
2018-06-12T06:48:01.148Z,17.16
2018-06-12T06:48:26.524Z,17.19
2018-06-12T06:48:52.082Z,17.22
2018-06-12T06:49:17.570Z,17.06
2018-06-12T06:49:43.045Z,17.14
2018-06-12T06:50:08.542Z,17.16
2018-06-12T06:50:34.100Z,17.16
2018-06-12T06:50:59.601Z,17.14
2018-06-12T06:51:24.970Z,17.19
2018-06-12T06:51:50.427Z,17.2
2018-06-12T06:52:15.895Z,17.16
2018-06-12T06:52:41.369Z,17.14
2018-06-12T06:53:06.841Z,17.14
2018-06-12T06:53:32.336Z,17.19
2018-06-12T06:53:57.769Z,17.16
2018-06-12T06:54:23.305Z,17.24
2018-06-12T06:54:48.879Z,17.24
2018-06-12T06:55:14.336Z,17.26
2018-06-12T06:55:39.819Z,17.33
2018-06-12T06:56:05.294Z,17.29
2018-06-12T06:56:30.739Z,17.26
2018-06-12T06:56:56.209Z,17.36
2018-06-12T06:57:21.724Z,17.36
2018-06-12T06:57:47.165Z,17.38
2018-06-12T06:58:12.661Z,17.34
2018-06-12T06:58:38.165Z,17.38
2018-06-12T06:59:03.605Z,17.34
2018-06-12T06:59:29.154Z,17.29
2018-06-12T06:59:54.655Z,17.36
2018-06-12T07:00:20.126Z,17.3
2018-06-12T07:00:45.607Z,17.41
2018-06-12T07:01:11.110Z,17.44
2018-06-12T07:01:36.615Z,17.49
2018-06-12T07:02:02.080Z,17.51
2018-06-12T07:02:27.643Z,17.49
2018-06-12T07:02:53.101Z,17.49
2018-06-12T07:03:18.580Z,17.49
2018-06-12T07:03:44.085Z,17.49
2018-06-12T07:04:09.564Z,17.48
2018-06-12T07:04:35.096Z,17.56
2018-06-12T07:05:00.556Z,17.56
2018-06-12T07:05:25.985Z,17.51
2018-06-12T07:05:51.471Z,17.6
2018-06-12T07:06:16.945Z,17.67
2018-06-12T07:06:42.438Z,17.64
2018-06-12T07:07:07.870Z,17.71
2018-06-12T07:07:33.340Z,17.67
2018-06-12T07:07:58.860Z,17.71
2018-06-12T07:08:24.352Z,17.71
2018-06-12T07:08:49.796Z,17.64
2018-06-12T07:09:15.520Z,17.72
2018-06-12T07:09:41.038Z,17.78
2018-06-12T07:10:06.568Z,17.83
2018-06-12T07:10:32.123Z,17.78
2018-06-12T07:10:57.656Z,17.79
2018-06-12T07:11:23.341Z,17.89
2018-06-12T07:11:49.066Z,17.87
2018-06-12T07:12:14.572Z,17.89
2018-06-12T07:12:40.160Z,17.87
2018-06-12T07:13:05.946Z,17.92
2018-06-12T07:13:31.467Z,17.85
2018-06-12T07:13:56.916Z,17.8
2018-06-12T07:14:22.531Z,17.89
2018-06-12T07:14:48.044Z,17.89
2018-06-12T07:15:13.573Z,17.92
2018-06-12T07:15:39.018Z,17.89
2018-06-12T07:16:04.524Z,17.95
2018-06-12T07:16:30.053Z,17.9
2018-06-12T07:16:55.631Z,17.89
2018-06-12T07:17:21.121Z,17.83
2018-06-12T07:17:46.608Z,17.9
2018-06-12T07:18:12.151Z,17.95
2018-06-12T07:18:37.684Z,18
2018-06-12T07:19:03.141Z,17.92
2018-06-12T07:19:28.663Z,17.94
2018-06-12T07:19:54.138Z,18
2018-06-12T07:20:19.658Z,18.01
2018-06-12T07:20:45.100Z,18.08
2018-06-12T07:21:10.688Z,18.07
2018-06-12T07:21:36.270Z,18.05
2018-06-12T07:22:01.688Z,18.13
2018-06-12T07:22:27.230Z,18.13
2018-06-12T07:22:52.909Z,18.07
2018-06-12T07:23:18.233Z,18.13
2018-06-12T07:23:43.797Z,18.2
2018-06-12T07:24:09.351Z,18.26
2018-06-12T07:24:34.808Z,18.29
2018-06-12T07:25:00.362Z,18.23
2018-06-12T07:25:25.863Z,18.22
2018-06-12T07:25:51.397Z,18.23
2018-06-12T07:26:16.942Z,18.25
2018-06-12T07:26:42.392Z,18.34
2018-06-12T07:27:07.863Z,18.37
2018-06-12T07:27:33.371Z,18.33
2018-06-12T07:27:59.126Z,18.34
2018-06-12T07:28:24.459Z,18.33
2018-06-12T07:28:49.962Z,18.33
2018-06-12T07:29:15.551Z,18.29
2018-06-12T07:29:40.999Z,18.29
2018-06-12T07:30:06.608Z,18.37
2018-06-12T07:30:31.991Z,18.41
2018-06-12T07:30:57.539Z,18.41
2018-06-12T07:31:23.509Z,18.34
2018-06-12T07:31:49.006Z,18.43
2018-06-12T07:32:14.588Z,18.45
2018-06-12T07:32:39.933Z,18.5
2018-06-12T07:33:05.478Z,18.49
2018-06-12T07:33:30.995Z,18.52
2018-06-12T07:33:56.525Z,18.56
2018-06-12T07:34:22.077Z,18.58
2018-06-12T07:34:47.770Z,18.58
2018-06-12T07:35:13.114Z,18.55
2018-06-12T07:35:38.579Z,18.53
2018-06-12T07:36:04.191Z,18.53
2018-06-12T07:36:29.854Z,18.44
2018-06-12T07:36:55.620Z,18.45
2018-06-12T07:37:20.828Z,18.34
2018-06-12T07:37:46.710Z,18.43
2018-06-12T07:38:12.114Z,18.35
2018-06-12T07:38:37.611Z,18.35
2018-06-12T07:39:03.138Z,18.2
2018-06-12T07:39:28.648Z,18.2
2018-06-12T07:39:54.138Z,18.18
2018-06-12T07:40:19.655Z,18.23
2018-06-12T07:40:45.838Z,18.19
2018-06-12T07:41:11.065Z,18.08
2018-06-12T07:41:36.568Z,18.11
2018-06-12T07:42:02.080Z,18.1
2018-06-12T07:42:27.549Z,18.11
2018-06-12T07:42:53.123Z,18.13
2018-06-12T07:43:18.881Z,18.11
2018-06-12T07:43:44.375Z,18.11
2018-06-12T07:44:10.043Z,18.08
2018-06-12T07:44:36.021Z,18.01
2018-06-12T07:45:01.975Z,18.03
2018-06-12T07:45:27.542Z,18.08
2018-06-12T07:45:53.027Z,18.01
2018-06-12T07:46:18.474Z,18.03
2018-06-12T07:46:44.118Z,17.98
2018-06-12T07:47:09.651Z,17.97
2018-06-12T07:47:35.103Z,17.92
2018-06-12T07:48:00.599Z,17.92
2018-06-12T07:48:26.114Z,17.9
2018-06-12T07:48:51.754Z,17.92
2018-06-12T07:49:17.255Z,17.97
2018-06-12T07:49:43.870Z,17.94
2018-06-12T07:50:08.505Z,17.94
2018-06-12T07:50:33.949Z,17.92
2018-06-12T07:50:59.480Z,17.94
2018-06-12T07:51:25.007Z,17.9
2018-06-12T07:51:50.540Z,17.92
2018-06-12T07:52:16.175Z,17.92
2018-06-12T07:52:41.857Z,17.92
2018-06-12T07:53:07.205Z,17.92
2018-06-12T07:53:32.941Z,18.01
2018-06-12T07:53:58.268Z,18.07
2018-06-12T07:54:24.005Z,18.03
2018-06-12T07:54:49.542Z,18.05
2018-06-12T07:55:15.062Z,18.16
2018-06-12T07:55:40.472Z,18.15
2018-06-12T07:56:06.033Z,18.1
2018-06-12T07:56:31.502Z,18.16
2018-06-12T07:56:57.063Z,18.18
2018-06-12T07:57:22.534Z,18.22
2018-06-12T07:57:48.157Z,18.26
2018-06-12T07:58:13.617Z,18.28
2018-06-12T07:58:39.141Z,18.19
2018-06-12T07:59:04.672Z,18.22
2018-06-12T07:59:30.400Z,18.31
2018-06-12T07:59:55.890Z,18.33
2018-06-12T08:00:21.613Z,18.4
2018-06-12T08:00:47.187Z,18.33
2018-06-12T08:01:12.712Z,18.34
2018-06-12T08:01:38.312Z,18.38
2018-06-12T08:02:03.718Z,18.33
2018-06-12T08:02:29.489Z,18.34
2018-06-12T08:02:54.949Z,18.34
2018-06-12T08:03:20.441Z,18.44
2018-06-12T08:03:46.024Z,18.49
2018-06-12T08:04:11.446Z,18.45
2018-06-12T08:04:36.992Z,18.45
2018-06-12T08:05:02.854Z,18.45
2018-06-12T08:05:28.698Z,18.55
2018-06-12T08:05:53.984Z,18.52
2018-06-12T08:06:19.713Z,18.53
2018-06-12T08:06:45.730Z,18.52
2018-06-12T08:07:11.298Z,18.63
2018-06-12T08:07:36.900Z,18.66
2018-06-12T08:08:02.684Z,18.7
2018-06-12T08:08:28.747Z,18.77
2018-06-12T08:08:55.224Z,18.75
2018-06-12T08:09:19.942Z,18.7
2018-06-12T08:09:45.513Z,18.63
2018-06-12T08:10:11.048Z,18.7
2018-06-12T08:10:36.920Z,18.71
2018-06-12T08:11:02.573Z,18.62
2018-06-12T08:11:28.486Z,18.71
2018-06-12T08:11:54.459Z,18.65
2018-06-12T08:12:19.922Z,18.74
2018-06-12T08:12:45.588Z,18.77
2018-06-12T08:13:11.705Z,18.68
2018-06-12T08:13:38.455Z,18.7
2018-06-12T08:14:04.081Z,18.71
2018-06-12T08:14:30.147Z,18.75
2018-06-12T08:14:55.942Z,18.7
2018-06-12T08:15:21.961Z,18.74
2018-06-12T08:15:47.987Z,18.77
2018-06-12T08:16:13.733Z,18.71
2018-06-12T08:16:39.374Z,18.66
2018-06-12T08:17:04.897Z,18.73
2018-06-12T08:17:30.769Z,18.9
2018-06-12T08:17:56.928Z,18.88
2018-06-12T08:18:22.441Z,18.8
2018-06-12T08:18:48.107Z,18.9
2018-06-12T08:19:14.440Z,18.83
2018-06-12T08:19:40.316Z,18.9
2018-06-12T08:20:06.251Z,18.95
2018-06-12T08:20:31.688Z,18.88
2018-06-12T08:20:57.378Z,18.93
2018-06-12T08:21:23.401Z,19
2018-06-12T08:21:48.892Z,19
2018-06-12T08:22:14.391Z,18.93
2018-06-12T08:22:40.221Z,18.96
2018-06-12T08:23:05.856Z,18.98
2018-06-12T08:23:31.576Z,18.93
2018-06-12T08:23:57.094Z,19.07
2018-06-12T08:24:22.900Z,18.98
2018-06-12T08:24:48.470Z,18.99
2018-06-12T08:25:14.316Z,18.95
2018-06-12T08:25:40.273Z,18.96
2018-06-12T08:26:05.820Z,19.07
2018-06-12T08:26:31.619Z,19.07
2018-06-12T08:26:57.419Z,19.07
2018-06-12T08:27:22.899Z,19.09
2018-06-12T08:27:49.041Z,19.09
2018-06-12T08:28:15.141Z,19.04
2018-06-12T08:28:41.835Z,19.02
2018-06-12T08:29:07.638Z,18.99
2018-06-12T08:29:33.291Z,19.02
2018-06-12T08:29:59.055Z,18.99
2018-06-12T08:30:25.352Z,19.04
2018-06-12T08:30:51.022Z,19.09
2018-06-12T08:31:16.428Z,19
2018-06-12T08:31:42.189Z,18.99
2018-06-12T08:32:08.066Z,18.99
2018-06-12T08:32:33.815Z,18.92
2018-06-12T08:32:59.652Z,19.02
2018-06-12T08:33:25.716Z,18.98
2018-06-12T08:33:51.743Z,19.04
2018-06-12T08:34:17.067Z,19.07
2018-06-12T08:34:42.848Z,19.09
2018-06-12T08:35:08.407Z,19.11
2018-06-12T08:35:33.858Z,19.14
2018-06-12T08:35:59.286Z,19.19
2018-06-12T08:36:24.809Z,19.16
2018-06-12T08:36:50.258Z,19.19
2018-06-12T08:37:15.729Z,19.21
2018-06-12T08:37:41.180Z,19.19
2018-06-12T08:38:06.884Z,19.12
2018-06-12T08:38:32.776Z,19.16
2018-06-12T08:38:58.414Z,19.02
2018-06-12T08:39:24.289Z,19
2018-06-12T08:39:49.746Z,18.99
2018-06-12T08:40:15.822Z,18.95
2018-06-12T08:40:41.635Z,19.02
2018-06-12T08:41:07.490Z,18.93
2018-06-12T08:41:32.947Z,19.07
2018-06-12T08:41:58.656Z,18.98
2018-06-12T08:42:24.629Z,19.07
2018-06-12T08:42:50.488Z,18.99
2018-06-12T08:43:15.980Z,19.02
2018-06-12T08:43:41.594Z,19.02
2018-06-12T08:44:07.180Z,19.12
2018-06-12T08:44:33.074Z,19.16
2018-06-12T08:44:59.293Z,19.24
2018-06-12T08:45:24.681Z,19.18
2018-06-12T08:45:50.253Z,19.34
2018-06-12T08:46:15.969Z,19.34
2018-06-12T08:46:41.709Z,19.36
2018-06-12T08:47:07.282Z,19.37
2018-06-12T08:47:33.098Z,19.37
2018-06-12T08:47:58.582Z,19.37
2018-06-12T08:48:24.094Z,19.47
2018-06-12T08:48:49.648Z,19.49
2018-06-12T08:49:15.347Z,19.48
2018-06-12T08:49:40.888Z,19.49
2018-06-12T08:50:06.423Z,19.49
2018-06-12T08:50:31.851Z,19.49
2018-06-12T08:50:57.342Z,19.48
2018-06-12T08:51:22.877Z,19.4
2018-06-12T08:51:48.481Z,19.39
2018-06-12T08:52:14.187Z,19.36
2018-06-12T08:52:39.720Z,19.47
2018-06-12T08:53:05.273Z,19.37
2018-06-12T08:53:30.974Z,19.36
2018-06-12T08:53:56.580Z,19.39
2018-06-12T08:54:22.105Z,19.41
2018-06-12T08:54:47.653Z,19.36
2018-06-12T08:55:13.276Z,19.37
2018-06-12T08:55:38.867Z,19.3
2018-06-12T08:56:04.298Z,19.37
2018-06-12T08:56:29.770Z,19.31
2018-06-12T08:56:56.619Z,19.24
2018-06-12T08:57:22.086Z,19.29
2018-06-12T08:57:47.915Z,19.16
2018-06-12T08:58:13.207Z,19.18
2018-06-12T08:58:39.168Z,19.14
2018-06-12T08:59:04.935Z,19.14
2018-06-12T08:59:30.701Z,19.16
2018-06-12T08:59:56.204Z,19.12
2018-06-12T09:00:21.734Z,19.14
2018-06-12T09:00:47.259Z,19.18
2018-06-12T09:01:12.719Z,19.16
2018-06-12T09:01:38.211Z,19.21
2018-06-12T09:02:03.741Z,19.15
2018-06-12T09:02:29.211Z,19.21
2018-06-12T09:02:54.691Z,19.29
2018-06-12T09:03:20.154Z,19.36
2018-06-12T09:03:45.643Z,19.37
2018-06-12T09:04:11.173Z,19.36
2018-06-12T09:04:36.616Z,19.49
2018-06-12T09:05:02.124Z,19.44
2018-06-12T09:05:27.565Z,19.49
2018-06-12T09:05:53.079Z,19.64
2018-06-12T09:06:18.521Z,19.7
2018-06-12T09:06:44.005Z,19.64
2018-06-12T09:07:09.505Z,19.7
2018-06-12T09:07:35.272Z,19.7
2018-06-12T09:08:00.767Z,19.77
2018-06-12T09:08:26.268Z,19.82
2018-06-12T09:08:51.737Z,19.88
2018-06-12T09:09:17.247Z,19.91
2018-06-12T09:09:42.698Z,19.99
2018-06-12T09:10:08.169Z,20.03
2018-06-12T09:10:33.657Z,20.1
2018-06-12T09:10:59.251Z,20.19
2018-06-12T09:11:24.687Z,20.21
2018-06-12T09:11:50.354Z,20.24
2018-06-12T09:12:15.880Z,20.29
2018-06-12T09:12:41.472Z,20.29
2018-06-12T09:13:07.013Z,20.37
2018-06-12T09:13:32.501Z,20.5
2018-06-12T09:13:58.158Z,20.5
2018-06-12T09:14:23.605Z,20.56
2018-06-12T09:14:49.178Z,20.69
2018-06-12T09:15:14.714Z,20.74
2018-06-12T09:15:40.143Z,20.69
2018-06-12T09:16:05.743Z,20.72
2018-06-12T09:16:31.248Z,20.82
2018-06-12T09:16:56.732Z,20.84
2018-06-12T09:17:22.244Z,20.84
2018-06-12T09:17:47.835Z,20.84
2018-06-12T09:18:13.347Z,20.87
2018-06-12T09:18:38.806Z,20.78
2018-06-12T09:19:04.262Z,20.9
2018-06-12T09:19:29.736Z,20.85
2018-06-12T09:19:55.232Z,20.88
2018-06-12T09:20:20.717Z,20.82
2018-06-12T09:20:46.251Z,20.85
2018-06-12T09:21:11.721Z,20.84
2018-06-12T09:21:37.210Z,20.84
2018-06-12T09:22:02.713Z,20.72
2018-06-12T09:22:28.266Z,20.65
2018-06-12T09:22:53.784Z,20.65
2018-06-12T09:23:19.254Z,20.62
2018-06-12T09:23:44.756Z,20.55
2018-06-12T09:24:48.407Z,20.41
2018-06-12T09:25:13.901Z,20.44
2018-06-12T09:25:39.378Z,20.29
2018-06-12T09:26:04.880Z,20.32
2018-06-12T09:26:30.361Z,20.26
2018-06-12T09:26:55.877Z,20.32
2018-06-12T09:27:21.319Z,20.29
2018-06-12T09:27:46.860Z,20.26
2018-06-12T09:28:12.266Z,20.26
2018-06-12T09:28:37.806Z,20.24
2018-06-12T09:29:03.269Z,20.26
2018-06-12T09:29:28.766Z,20.26
2018-06-12T09:29:54.246Z,20.26
2018-06-12T09:30:19.900Z,20.26
2018-06-12T09:30:45.385Z,20.26
2018-06-12T09:31:10.853Z,20.34
2018-06-12T09:31:36.535Z,20.31
2018-06-12T09:32:02.057Z,20.32
2018-06-12T09:32:27.515Z,20.28
2018-06-12T09:32:52.963Z,20.32
2018-06-12T09:33:18.438Z,20.32
2018-06-12T09:33:43.943Z,20.28
2018-06-12T09:34:09.444Z,20.28
2018-06-12T09:34:34.998Z,20.28
2018-06-12T09:35:00.482Z,20.24
2018-06-12T09:35:25.994Z,20.32
2018-06-12T09:35:51.436Z,20.26
2018-06-12T09:36:16.974Z,20.26
2018-06-12T09:36:42.422Z,20.32
2018-06-12T09:37:07.918Z,20.4
2018-06-12T09:37:33.455Z,20.37
2018-06-12T09:37:58.876Z,20.43
2018-06-12T09:38:57.481Z,20.31
2018-06-12T09:39:22.968Z,20.28
2018-06-12T09:39:48.425Z,20.29
2018-06-12T09:40:13.951Z,20.29
2018-06-12T09:40:39.424Z,20.39
2018-06-12T09:41:04.923Z,20.34
2018-06-12T09:41:30.385Z,20.4
2018-06-12T09:41:55.879Z,20.44
2018-06-12T09:42:21.379Z,20.51
2018-06-12T09:42:46.848Z,20.55
2018-06-12T09:43:12.321Z,20.56